Terminal Aerodrome Forecast
Issued by NWS Sioux Falls, SD

Home | Current Version | Previous Version | Graphics & Text | Print | Product List | Glossary Off
Versions: 1 2 3 4 5 6 7 8 9 10 11 12

000
FTUS43 KFSD 252320
TAFFSD
TAF
KFSD 252320Z 2600/2624 17009KT P6SM FEW050 SCT100
     FM260700 18005KT P6SM SCT120
     FM261000 25005KT P6SM SCT250
     FM261200 31006KT P6SM BKN150
     FM261600 30008KT P6SM SKC=

USA.gov is the U.S. government's official web portal to all federal, state and local government web resources and services.